Terminal Aerodrome Forecast
Issued by NWS

Home | Current Version | Previous Version | Text Only | Print | Product List | Glossary On
Versions: 1 2 3 4 5 6 7 8 9 10 11 12 13 14 15 16 17 18 19 20 21 22 23 24 25 26 27 28 29 30 31 32 33 34 35 36 37 38
000
FTUS41 KBOX 280522
TAFFMH
TAF
KFMH 280522Z 2806/2906 00000KT P6SM OVC040
     FM280800 01007KT 5SM -SHRA BR OVC025
     FM281200 02009KT 2SM -SHSN BR OVC008
     FM281600 01012G21KT 1 1/2SM -SHRA BR OVC008
     FM282200 36010G21KT 3SM -SHSN BR OVC015
     FM290100 36008KT P6SM OVC015=

USA.gov is the U.S. government's official web portal to all federal, state and local government web resources and services.